sensor_id;sensor_type;location;lat;lon;timestamp;P1;durP1;ratioP1;P2;durP2;ratioP2
78053;SDS011;67726;45.636;11.752;2023-04-16T00:01:53;9.43;;;4.78;;
78053;SDS011;67726;45.636;11.752;2023-04-16T00:04:19;9.90;;;4.95;;
78053;SDS011;67726;45.636;11.752;2023-04-16T00:06:45;11.73;;;4.60;;
78053;SDS011;67726;45.636;11.752;2023-04-16T00:09:11;9.27;;;4.60;;
78053;SDS011;67726;45.636;11.752;2023-04-16T00:11:36;12.15;;;5.50;;
78053;SDS011;67726;45.636;11.752;2023-04-16T00:14:02;10.83;;;5.53;;
78053;SDS011;67726;45.636;11.752;2023-04-16T00:16:28;11.50;;;5.65;;
78053;SDS011;67726;45.636;11.752;2023-04-16T00:18:54;10.43;;;5.25;;
78053;SDS011;67726;45.636;11.752;2023-04-16T00:21:20;8.50;;;4.90;;
78053;SDS011;67726;45.636;11.752;2023-04-16T00:23:45;9.45;;;5.90;;
78053;SDS011;67726;45.636;11.752;2023-04-16T00:26:11;12.77;;;5.50;;
78053;SDS011;67726;45.636;11.752;2023-04-16T00:28:36;12.57;;;5.67;;
78053;SDS011;67726;45.636;11.752;2023-04-16T00:31:02;10.48;;;5.85;;
78053;SDS011;67726;45.636;11.752;2023-04-16T00:33:28;10.23;;;6.00;;
78053;SDS011;67726;45.636;11.752;2023-04-16T00:35:54;11.38;;;5.50;;
78053;SDS011;67726;45.636;11.752;2023-04-16T00:38:20;10.85;;;5.88;;
78053;SDS011;67726;45.636;11.752;2023-04-16T00:40:45;13.70;;;5.57;;
78053;SDS011;67726;45.636;11.752;2023-04-16T00:43:18;10.88;;;6.43;;
78053;SDS011;67726;45.636;11.752;2023-04-16T00:45:49;9.77;;;5.60;;
78053;SDS011;67726;45.636;11.752;2023-04-16T00:48:15;9.10;;;6.32;;
78053;SDS011;67726;45.636;11.752;2023-04-16T00:50:40;9.52;;;5.88;;
78053;SDS011;67726;45.636;11.752;2023-04-16T00:53:06;9.65;;;5.53;;
78053;SDS011;67726;45.636;11.752;2023-04-16T00:55:32;9.70;;;5.80;;
78053;SDS011;67726;45.636;11.752;2023-04-16T00:57:58;9.65;;;5.70;;
78053;SDS011;67726;45.636;11.752;2023-04-16T01:00:24;10.38;;;6.43;;
78053;SDS011;67726;45.636;11.752;2023-04-16T01:02:51;10.30;;;6.17;;
78053;SDS011;67726;45.636;11.752;2023-04-16T01:05:17;9.13;;;5.97;;
78053;SDS011;67726;45.636;11.752;2023-04-16T01:07:43;11.25;;;6.55;;
78053;SDS011;67726;45.636;11.752;2023-04-16T01:10:09;10.63;;;5.83;;
78053;SDS011;67726;45.636;11.752;2023-04-16T01:12:35;12.82;;;6.45;;
78053;SDS011;67726;45.636;11.752;2023-04-16T01:15:01;12.25;;;6.70;;
78053;SDS011;67726;45.636;11.752;2023-04-16T01:17:26;10.40;;;6.43;;
78053;SDS011;67726;45.636;11.752;2023-04-16T01:19:52;11.82;;;7.22;;
78053;SDS011;67726;45.636;11.752;2023-04-16T01:22:18;11.40;;;6.40;;
78053;SDS011;67726;45.636;11.752;2023-04-16T01:24:43;12.80;;;7.00;;
78053;SDS011;67726;45.636;11.752;2023-04-16T01:27:09;10.88;;;6.80;;
78053;SDS011;67726;45.636;11.752;2023-04-16T01:29:35;10.98;;;6.68;;
78053;SDS011;67726;45.636;11.752;2023-04-16T01:32:01;14.43;;;6.77;;
78053;SDS011;67726;45.636;11.752;2023-04-16T01:34:26;11.63;;;7.65;;
78053;SDS011;67726;45.636;11.752;2023-04-16T01:36:52;11.27;;;7.00;;
78053;SDS011;67726;45.636;11.752;2023-04-16T01:39:18;12.25;;;6.95;;
78053;SDS011;67726;45.636;11.752;2023-04-16T01:41:44;11.50;;;7.40;;
78053;SDS011;67726;45.636;11.752;2023-04-16T01:44:10;13.65;;;7.07;;
78053;SDS011;67726;45.636;11.752;2023-04-16T01:46:36;11.63;;;7.70;;
78053;SDS011;67726;45.636;11.752;2023-04-16T01:49:02;12.05;;;7.57;;
78053;SDS011;67726;45.636;11.752;2023-04-16T01:51:28;14.63;;;7.63;;
78053;SDS011;67726;45.636;11.752;2023-04-16T01:53:54;10.98;;;7.05;;
78053;SDS011;67726;45.636;11.752;2023-04-16T01:56:22;13.43;;;8.13;;
78053;SDS011;67726;45.636;11.752;2023-04-16T01:58:47;12.83;;;7.70;;
78053;SDS011;67726;45.636;11.752;2023-04-16T02:01:13;12.32;;;8.25;;
78053;SDS011;67726;45.636;11.752;2023-04-16T02:03:39;13.00;;;7.83;;
78053;SDS011;67726;45.636;11.752;2023-04-16T02:06:05;12.13;;;7.50;;
78053;SDS011;67726;45.636;11.752;2023-04-16T02:08:30;11.37;;;7.30;;
78053;SDS011;67726;45.636;11.752;2023-04-16T02:10:56;10.70;;;7.22;;
78053;SDS011;67726;45.636;11.752;2023-04-16T02:13:22;12.83;;;9.47;;
78053;SDS011;67726;45.636;11.752;2023-04-16T02:15:50;11.68;;;7.93;;
78053;SDS011;67726;45.636;11.752;2023-04-16T02:18:16;14.65;;;9.32;;
78053;SDS011;67726;45.636;11.752;2023-04-16T02:20:42;13.23;;;8.27;;
78053;SDS011;67726;45.636;11.752;2023-04-16T02:23:09;13.98;;;9.00;;
78053;SDS011;67726;45.636;11.752;2023-04-16T02:25:45;12.00;;;8.07;;
78053;SDS011;67726;45.636;11.752;2023-04-16T02:28:12;12.15;;;7.10;;
78053;SDS011;67726;45.636;11.752;2023-04-16T02:30:40;12.30;;;7.68;;
78053;SDS011;67726;45.636;11.752;2023-04-16T02:33:07;11.80;;;8.23;;
78053;SDS011;67726;45.636;11.752;2023-04-16T02:35:34;11.57;;;7.78;;
78053;SDS011;67726;45.636;11.752;2023-04-16T02:38:01;13.20;;;7.93;;
78053;SDS011;67726;45.636;11.752;2023-04-16T02:40:28;12.63;;;8.50;;
78053;SDS011;67726;45.636;11.752;2023-04-16T02:42:54;13.75;;;8.95;;
78053;SDS011;67726;45.636;11.752;2023-04-16T02:45:21;14.17;;;8.60;;
78053;SDS011;67726;45.636;11.752;2023-04-16T02:47:47;16.10;;;8.20;;
78053;SDS011;67726;45.636;11.752;2023-04-16T02:50:13;10.43;;;7.40;;
78053;SDS011;67726;45.636;11.752;2023-04-16T02:52:39;10.75;;;7.18;;
78053;SDS011;67726;45.636;11.752;2023-04-16T02:55:05;13.67;;;7.83;;
78053;SDS011;67726;45.636;11.752;2023-04-16T02:57:31;12.85;;;8.57;;
78053;SDS011;67726;45.636;11.752;2023-04-16T02:59:57;14.73;;;8.25;;
78053;SDS011;67726;45.636;11.752;2023-04-16T03:02:23;11.27;;;7.97;;
78053;SDS011;67726;45.636;11.752;2023-04-16T03:04:48;10.27;;;7.40;;
78053;SDS011;67726;45.636;11.752;2023-04-16T03:07:14;13.18;;;6.97;;
78053;SDS011;67726;45.636;11.752;2023-04-16T03:09:42;10.90;;;7.80;;
78053;SDS011;67726;45.636;11.752;2023-04-16T03:12:08;12.13;;;7.68;;
78053;SDS011;67726;45.636;11.752;2023-04-16T03:14:34;12.80;;;7.80;;
78053;SDS011;67726;45.636;11.752;2023-04-16T03:17:00;12.57;;;7.72;;
78053;SDS011;67726;45.636;11.752;2023-04-16T03:19:25;11.80;;;7.87;;
78053;SDS011;67726;45.636;11.752;2023-04-16T03:21:51;13.82;;;8.00;;
78053;SDS011;67726;45.636;11.752;2023-04-16T03:24:17;11.93;;;8.77;;
78053;SDS011;67726;45.636;11.752;2023-04-16T03:26:42;11.55;;;7.43;;
78053;SDS011;67726;45.636;11.752;2023-04-16T03:29:08;13.47;;;8.13;;
78053;SDS011;67726;45.636;11.752;2023-04-16T03:31:34;13.33;;;8.07;;
78053;SDS011;67726;45.636;11.752;2023-04-16T03:33:59;12.32;;;8.18;;
78053;SDS011;67726;45.636;11.752;2023-04-16T03:36:25;12.27;;;8.20;;
78053;SDS011;67726;45.636;11.752;2023-04-16T03:38:51;12.27;;;8.35;;
78053;SDS011;67726;45.636;11.752;2023-04-16T03:41:17;12.93;;;8.30;;
78053;SDS011;67726;45.636;11.752;2023-04-16T03:43:42;14.40;;;8.77;;
78053;SDS011;67726;45.636;11.752;2023-04-16T03:46:08;14.52;;;8.50;;
78053;SDS011;67726;45.636;11.752;2023-04-16T03:48:34;13.98;;;8.27;;
78053;SDS011;67726;45.636;11.752;2023-04-16T03:51:00;15.10;;;7.37;;
78053;SDS011;67726;45.636;11.752;2023-04-16T03:53:26;11.32;;;7.50;;
78053;SDS011;67726;45.636;11.752;2023-04-16T03:55:52;11.90;;;7.20;;
78053;SDS011;67726;45.636;11.752;2023-04-16T03:58:18;11.03;;;7.60;;
78053;SDS011;67726;45.636;11.752;2023-04-16T04:00:43;14.50;;;8.23;;
78053;SDS011;67726;45.636;11.752;2023-04-16T04:03:10;11.18;;;6.60;;
78053;SDS011;67726;45.636;11.752;2023-04-16T04:05:38;15.38;;;7.85;;
78053;SDS011;67726;45.636;11.752;2023-04-16T04:08:05;10.87;;;7.43;;
78053;SDS011;67726;45.636;11.752;2023-04-16T04:10:35;12.38;;;8.38;;
78053;SDS011;67726;45.636;11.752;2023-04-16T04:13:01;12.27;;;8.43;;
78053;SDS011;67726;45.636;11.752;2023-04-16T04:15:28;13.52;;;8.55;;
78053;SDS011;67726;45.636;11.752;2023-04-16T04:17:54;13.33;;;9.03;;
78053;SDS011;67726;45.636;11.752;2023-04-16T04:20:20;13.95;;;8.32;;
78053;SDS011;67726;45.636;11.752;2023-04-16T04:22:46;10.48;;;7.80;;
78053;SDS011;67726;45.636;11.752;2023-04-16T04:25:12;13.20;;;8.30;;
78053;SDS011;67726;45.636;11.752;2023-04-16T04:27:38;12.05;;;7.70;;
78053;SDS011;67726;45.636;11.752;2023-04-16T04:30:04;12.83;;;8.60;;
78053;SDS011;67726;45.636;11.752;2023-04-16T04:32:30;14.80;;;8.38;;
78053;SDS011;67726;45.636;11.752;2023-04-16T04:34:56;12.43;;;8.23;;
78053;SDS011;67726;45.636;11.752;2023-04-16T04:37:23;18.30;;;9.55;;
78053;SDS011;67726;45.636;11.752;2023-04-16T04:39:49;15.33;;;9.37;;
78053;SDS011;67726;45.636;11.752;2023-04-16T04:42:18;15.10;;;9.80;;
78053;SDS011;67726;45.636;11.752;2023-04-16T04:44:44;18.00;;;9.68;;
78053;SDS011;67726;45.636;11.752;2023-04-16T04:47:10;16.15;;;9.85;;
78053;SDS011;67726;45.636;11.752;2023-04-16T04:49:36;15.10;;;9.47;;
78053;SDS011;67726;45.636;11.752;2023-04-16T04:52:02;15.38;;;9.02;;
78053;SDS011;67726;45.636;11.752;2023-04-16T04:54:30;13.57;;;8.60;;
78053;SDS011;67726;45.636;11.752;2023-04-16T04:56:56;14.75;;;8.45;;
78053;SDS011;67726;45.636;11.752;2023-04-16T04:59:23;13.05;;;8.43;;
78053;SDS011;67726;45.636;11.752;2023-04-16T05:01:49;13.30;;;7.97;;
78053;SDS011;67726;45.636;11.752;2023-04-16T05:04:15;11.90;;;7.18;;
78053;SDS011;67726;45.636;11.752;2023-04-16T05:06:41;9.20;;;6.43;;
78053;SDS011;67726;45.636;11.752;2023-04-16T05:09:07;9.93;;;6.63;;
78053;SDS011;67726;45.636;11.752;2023-04-16T05:11:39;9.00;;;5.88;;
78053;SDS011;67726;45.636;11.752;2023-04-16T05:14:06;8.65;;;5.30;;
78053;SDS011;67726;45.636;11.752;2023-04-16T05:16:31;8.60;;;5.53;;
78053;SDS011;67726;45.636;11.752;2023-04-16T05:19:00;8.75;;;5.32;;
78053;SDS011;67726;45.636;11.752;2023-04-16T05:21:25;9.32;;;5.28;;
78053;SDS011;67726;45.636;11.752;2023-04-16T05:23:51;10.00;;;6.10;;
78053;SDS011;67726;45.636;11.752;2023-04-16T05:26:17;8.00;;;5.18;;
78053;SDS011;67726;45.636;11.752;2023-04-16T05:28:42;9.63;;;6.00;;
78053;SDS011;67726;45.636;11.752;2023-04-16T05:31:08;9.37;;;5.63;;
78053;SDS011;67726;45.636;11.752;2023-04-16T05:33:34;10.40;;;5.40;;
78053;SDS011;67726;45.636;11.752;2023-04-16T05:35:59;9.53;;;5.33;;
78053;SDS011;67726;45.636;11.752;2023-04-16T05:38:25;8.57;;;5.18;;
78053;SDS011;67726;45.636;11.752;2023-04-16T05:40:51;9.70;;;5.40;;
78053;SDS011;67726;45.636;11.752;2023-04-16T05:43:16;9.55;;;6.25;;
78053;SDS011;67726;45.636;11.752;2023-04-16T05:45:42;7.70;;;4.80;;
78053;SDS011;67726;45.636;11.752;2023-04-16T05:48:08;7.88;;;4.45;;
78053;SDS011;67726;45.636;11.752;2023-04-16T05:50:34;8.90;;;4.40;;
78053;SDS011;67726;45.636;11.752;2023-04-16T05:53:00;8.27;;;4.13;;
78053;SDS011;67726;45.636;11.752;2023-04-16T05:55:27;7.47;;;4.15;;
78053;SDS011;67726;45.636;11.752;2023-04-16T05:57:52;9.43;;;4.40;;
78053;SDS011;67726;45.636;11.752;2023-04-16T06:00:18;7.47;;;3.97;;
78053;SDS011;67726;45.636;11.752;2023-04-16T06:02:44;9.23;;;4.72;;
78053;SDS011;67726;45.636;11.752;2023-04-16T06:05:10;9.20;;;3.70;;
78053;SDS011;67726;45.636;11.752;2023-04-16T06:07:35;6.50;;;4.00;;
78053;SDS011;67726;45.636;11.752;2023-04-16T06:10:01;8.10;;;4.60;;
78053;SDS011;67726;45.636;11.752;2023-04-16T06:12:26;8.97;;;4.63;;
78053;SDS011;67726;45.636;11.752;2023-04-16T06:14:52;8.35;;;4.40;;
78053;SDS011;67726;45.636;11.752;2023-04-16T06:17:17;6.83;;;3.83;;
78053;SDS011;67726;45.636;11.752;2023-04-16T06:19:43;5.93;;;3.38;;
78053;SDS011;67726;45.636;11.752;2023-04-16T06:22:09;5.97;;;3.30;;
78053;SDS011;67726;45.636;11.752;2023-04-16T06:24:35;5.82;;;3.30;;
78053;SDS011;67726;45.636;11.752;2023-04-16T06:27:00;5.57;;;3.07;;
78053;SDS011;67726;45.636;11.752;2023-04-16T06:29:27;6.38;;;2.83;;
78053;SDS011;67726;45.636;11.752;2023-04-16T06:31:52;7.30;;;2.85;;
78053;SDS011;67726;45.636;11.752;2023-04-16T06:34:18;8.67;;;2.90;;
78053;SDS011;67726;45.636;11.752;2023-04-16T06:36:44;6.90;;;2.70;;
78053;SDS011;67726;45.636;11.752;2023-04-16T06:39:10;7.97;;;2.97;;
78053;SDS011;67726;45.636;11.752;2023-04-16T06:41:35;6.20;;;2.80;;
78053;SDS011;67726;45.636;11.752;2023-04-16T06:44:01;6.40;;;3.10;;
78053;SDS011;67726;45.636;11.752;2023-04-16T06:46:27;6.30;;;3.17;;
78053;SDS011;67726;45.636;11.752;2023-04-16T06:48:52;7.33;;;3.00;;
78053;SDS011;67726;45.636;11.752;2023-04-16T06:51:18;5.55;;;2.63;;
78053;SDS011;67726;45.636;11.752;2023-04-16T06:53:44;6.80;;;3.30;;
78053;SDS011;67726;45.636;11.752;2023-04-16T06:56:10;6.97;;;2.80;;
78053;SDS011;67726;45.636;11.752;2023-04-16T06:58:35;6.57;;;3.03;;
78053;SDS011;67726;45.636;11.752;2023-04-16T07:01:01;6.00;;;2.90;;
78053;SDS011;67726;45.636;11.752;2023-04-16T07:03:27;6.00;;;2.73;;
78053;SDS011;67726;45.636;11.752;2023-04-16T07:05:52;6.57;;;2.60;;
78053;SDS011;67726;45.636;11.752;2023-04-16T07:08:18;9.17;;;2.53;;
78053;SDS011;67726;45.636;11.752;2023-04-16T07:10:44;6.60;;;2.38;;
78053;SDS011;67726;45.636;11.752;2023-04-16T07:13:09;6.23;;;2.83;;
78053;SDS011;67726;45.636;11.752;2023-04-16T07:15:35;7.85;;;2.90;;
78053;SDS011;67726;45.636;11.752;2023-04-16T07:18:01;6.40;;;2.60;;
78053;SDS011;67726;45.636;11.752;2023-04-16T07:20:26;6.50;;;2.50;;
78053;SDS011;67726;45.636;11.752;2023-04-16T07:22:52;5.25;;;2.30;;
78053;SDS011;67726;45.636;11.752;2023-04-16T07:25:18;4.93;;;2.10;;
78053;SDS011;67726;45.636;11.752;2023-04-16T07:27:43;6.70;;;2.30;;
78053;SDS011;67726;45.636;11.752;2023-04-16T07:30:09;5.43;;;2.27;;
78053;SDS011;67726;45.636;11.752;2023-04-16T07:32:35;4.73;;;2.00;;
78053;SDS011;67726;45.636;11.752;2023-04-16T07:35:01;5.90;;;2.17;;
78053;SDS011;67726;45.636;11.752;2023-04-16T07:37:27;4.93;;;2.13;;
78053;SDS011;67726;45.636;11.752;2023-04-16T07:39:53;7.57;;;2.10;;
78053;SDS011;67726;45.636;11.752;2023-04-16T07:42:21;5.05;;;2.10;;
78053;SDS011;67726;45.636;11.752;2023-04-16T07:44:47;5.55;;;2.20;;
78053;SDS011;67726;45.636;11.752;2023-04-16T07:47:12;6.73;;;3.73;;
78053;SDS011;67726;45.636;11.752;2023-04-16T07:49:38;5.72;;;2.20;;
78053;SDS011;67726;45.636;11.752;2023-04-16T07:52:04;4.47;;;2.00;;
78053;SDS011;67726;45.636;11.752;2023-04-16T07:54:30;5.18;;;2.08;;
78053;SDS011;67726;45.636;11.752;2023-04-16T07:56:55;4.80;;;2.10;;
78053;SDS011;67726;45.636;11.752;2023-04-16T07:59:21;6.03;;;2.05;;
78053;SDS011;67726;45.636;11.752;2023-04-16T08:01:47;4.67;;;1.73;;
78053;SDS011;67726;45.636;11.752;2023-04-16T08:04:13;7.22;;;2.63;;
78053;SDS011;67726;45.636;11.752;2023-04-16T08:06:40;5.10;;;2.03;;
78053;SDS011;67726;45.636;11.752;2023-04-16T08:09:06;5.43;;;1.80;;
78053;SDS011;67726;45.636;11.752;2023-04-16T08:11:32;4.53;;;1.63;;
78053;SDS011;67726;45.636;11.752;2023-04-16T08:13:57;4.93;;;1.80;;
78053;SDS011;67726;45.636;11.752;2023-04-16T08:16:23;5.00;;;2.03;;
78053;SDS011;67726;45.636;11.752;2023-04-16T08:18:49;4.63;;;2.10;;
78053;SDS011;67726;45.636;11.752;2023-04-16T08:21:14;4.97;;;1.90;;
78053;SDS011;67726;45.636;11.752;2023-04-16T08:23:40;4.82;;;1.60;;
78053;SDS011;67726;45.636;11.752;2023-04-16T08:26:05;4.03;;;1.40;;
78053;SDS011;67726;45.636;11.752;2023-04-16T08:28:31;4.70;;;1.15;;
78053;SDS011;67726;45.636;11.752;2023-04-16T08:30:57;3.00;;;1.30;;
78053;SDS011;67726;45.636;11.752;2023-04-16T08:33:22;5.57;;;1.40;;
78053;SDS011;67726;45.636;11.752;2023-04-16T08:35:48;4.60;;;1.40;;
78053;SDS011;67726;45.636;11.752;2023-04-16T08:38:14;2.90;;;1.15;;
78053;SDS011;67726;45.636;11.752;2023-04-16T08:40:39;2.77;;;1.20;;
78053;SDS011;67726;45.636;11.752;2023-04-16T08:43:08;4.38;;;1.48;;
78053;SDS011;67726;45.636;11.752;2023-04-16T08:45:37;4.10;;;1.20;;
78053;SDS011;67726;45.636;11.752;2023-04-16T08:48:06;2.95;;;1.25;;
78053;SDS011;67726;45.636;11.752;2023-04-16T08:50:35;3.00;;;1.13;;
78053;SDS011;67726;45.636;11.752;2023-04-16T08:53:04;3.47;;;1.20;;
78053;SDS011;67726;45.636;11.752;2023-04-16T08:57:57;4.07;;;1.40;;
78053;SDS011;67726;45.636;11.752;2023-04-16T09:00:23;4.63;;;1.70;;
78053;SDS011;67726;45.636;11.752;2023-04-16T09:02:49;3.67;;;1.45;;
78053;SDS011;67726;45.636;11.752;2023-04-16T09:05:15;3.80;;;1.50;;
78053;SDS011;67726;45.636;11.752;2023-04-16T09:07:43;5.03;;;1.75;;
78053;SDS011;67726;45.636;11.752;2023-04-16T09:10:09;3.80;;;1.40;;
78053;SDS011;67726;45.636;11.752;2023-04-16T09:12:36;4.93;;;1.48;;
78053;SDS011;67726;45.636;11.752;2023-04-16T09:15:04;3.67;;;1.45;;
78053;SDS011;67726;45.636;11.752;2023-04-16T09:17:30;3.65;;;1.50;;
78053;SDS011;67726;45.636;11.752;2023-04-16T09:19:56;4.13;;;1.90;;
78053;SDS011;67726;45.636;11.752;2023-04-16T09:22:22;3.97;;;1.55;;
78053;SDS011;67726;45.636;11.752;2023-04-16T09:24:47;4.30;;;1.80;;
78053;SDS011;67726;45.636;11.752;2023-04-16T09:27:13;5.15;;;2.20;;
78053;SDS011;67726;45.636;11.752;2023-04-16T09:29:39;4.00;;;1.70;;
78053;SDS011;67726;45.636;11.752;2023-04-16T09:32:08;4.82;;;1.77;;
78053;SDS011;67726;45.636;11.752;2023-04-16T09:37:20;4.00;;;1.85;;
78053;SDS011;67726;45.636;11.752;2023-04-16T09:40:07;4.03;;;1.47;;
78053;SDS011;67726;45.636;11.752;2023-04-16T09:42:32;5.28;;;1.58;;
78053;SDS011;67726;45.636;11.752;2023-04-16T09:45:00;3.47;;;1.70;;
78053;SDS011;67726;45.636;11.752;2023-04-16T09:47:37;4.33;;;1.83;;
78053;SDS011;67726;45.636;11.752;2023-04-16T09:50:05;4.80;;;1.75;;
78053;SDS011;67726;45.636;11.752;2023-04-16T09:52:34;4.15;;;1.80;;
78053;SDS011;67726;45.636;11.752;2023-04-16T09:55:02;4.93;;;2.13;;
78053;SDS011;67726;45.636;11.752;2023-04-16T09:57:28;5.65;;;2.20;;
78053;SDS011;67726;45.636;11.752;2023-04-16T09:59:55;4.30;;;1.93;;
78053;SDS011;67726;45.636;11.752;2023-04-16T10:02:26;4.45;;;1.85;;
78053;SDS011;67726;45.636;11.752;2023-04-16T10:04:53;4.22;;;1.90;;
78053;SDS011;67726;45.636;11.752;2023-04-16T10:07:19;4.83;;;2.00;;
78053;SDS011;67726;45.636;11.752;2023-04-16T10:09:45;5.97;;;2.70;;
78053;SDS011;67726;45.636;11.752;2023-04-16T10:12:12;6.38;;;2.88;;
78053;SDS011;67726;45.636;11.752;2023-04-16T10:14:39;6.53;;;2.28;;
78053;SDS011;67726;45.636;11.752;2023-04-16T10:17:05;4.40;;;2.08;;
78053;SDS011;67726;45.636;11.752;2023-04-16T10:19:32;5.17;;;2.37;;
78053;SDS011;67726;45.636;11.752;2023-04-16T10:21:59;4.55;;;1.80;;
78053;SDS011;67726;45.636;11.752;2023-04-16T10:24:25;5.15;;;1.75;;
78053;SDS011;67726;45.636;11.752;2023-04-16T10:26:52;5.20;;;1.90;;
78053;SDS011;67726;45.636;11.752;2023-04-16T10:29:19;4.43;;;1.85;;
78053;SDS011;67726;45.636;11.752;2023-04-16T10:31:45;5.40;;;2.03;;
78053;SDS011;67726;45.636;11.752;2023-04-16T10:34:12;4.72;;;1.67;;
78053;SDS011;67726;45.636;11.752;2023-04-16T10:36:39;4.53;;;1.77;;
78053;SDS011;67726;45.636;11.752;2023-04-16T10:39:08;4.30;;;1.42;;
78053;SDS011;67726;45.636;11.752;2023-04-16T10:41:36;4.53;;;1.80;;
78053;SDS011;67726;45.636;11.752;2023-04-16T10:44:06;4.00;;;1.40;;
78053;SDS011;67726;45.636;11.752;2023-04-16T10:46:39;4.07;;;1.65;;
78053;SDS011;67726;45.636;11.752;2023-04-16T10:51:39;4.75;;;1.67;;
78053;SDS011;67726;45.636;11.752;2023-04-16T10:56:38;4.43;;;1.70;;
78053;SDS011;67726;45.636;11.752;2023-04-16T10:59:05;4.53;;;1.80;;
78053;SDS011;67726;45.636;11.752;2023-04-16T11:01:35;3.80;;;1.67;;
78053;SDS011;67726;45.636;11.752;2023-04-16T11:12:14;3.70;;;1.50;;
78053;SDS011;67726;45.636;11.752;2023-04-16T11:14:43;2.97;;;1.30;;
78053;SDS011;67726;45.636;11.752;2023-04-16T11:18:04;3.22;;;1.42;;
78053;SDS011;67726;45.636;11.752;2023-04-16T11:20:26;3.20;;;1.20;;
78053;SDS011;67726;45.636;11.752;2023-04-16T11:22:53;3.17;;;1.13;;
78053;SDS011;67726;45.636;11.752;2023-04-16T11:25:20;3.03;;;1.40;;
78053;SDS011;67726;45.636;11.752;2023-04-16T11:27:50;3.47;;;1.40;;
78053;SDS011;67726;45.636;11.752;2023-04-16T11:30:16;3.22;;;1.25;;
78053;SDS011;67726;45.636;11.752;2023-04-16T11:32:43;3.03;;;1.17;;
78053;SDS011;67726;45.636;11.752;2023-04-16T11:35:16;3.03;;;1.20;;
78053;SDS011;67726;45.636;11.752;2023-04-16T11:37:42;3.33;;;1.40;;
78053;SDS011;67726;45.636;11.752;2023-04-16T11:40:08;5.07;;;2.00;;
78053;SDS011;67726;45.636;11.752;2023-04-16T11:42:35;4.30;;;1.77;;
78053;SDS011;67726;45.636;11.752;2023-04-16T11:45:04;4.50;;;1.53;;
78053;SDS011;67726;45.636;11.752;2023-04-16T11:47:31;13.70;;;6.65;;
78053;SDS011;67726;45.636;11.752;2023-04-16T11:50:16;5.82;;;2.88;;
78053;SDS011;67726;45.636;11.752;2023-04-16T11:52:46;6.05;;;2.53;;
78053;SDS011;67726;45.636;11.752;2023-04-16T11:55:12;3.22;;;1.40;;
78053;SDS011;67726;45.636;11.752;2023-04-16T11:57:38;3.13;;;1.30;;
78053;SDS011;67726;45.636;11.752;2023-04-16T12:00:04;2.90;;;1.30;;
78053;SDS011;67726;45.636;11.752;2023-04-16T12:05:03;3.60;;;1.60;;
78053;SDS011;67726;45.636;11.752;2023-04-16T12:07:30;4.33;;;1.67;;
78053;SDS011;67726;45.636;11.752;2023-04-16T12:10:05;3.97;;;1.50;;
78053;SDS011;67726;45.636;11.752;2023-04-16T12:12:32;3.63;;;1.55;;
78053;SDS011;67726;45.636;11.752;2023-04-16T12:15:00;4.22;;;1.60;;
78053;SDS011;67726;45.636;11.752;2023-04-16T12:17:28;3.73;;;1.63;;
78053;SDS011;67726;45.636;11.752;2023-04-16T12:19:55;3.88;;;1.70;;
78053;SDS011;67726;45.636;11.752;2023-04-16T12:22:29;3.90;;;1.98;;
78053;SDS011;67726;45.636;11.752;2023-04-16T12:25:02;4.50;;;1.50;;
78053;SDS011;67726;45.636;11.752;2023-04-16T12:30:25;3.57;;;1.70;;
78053;SDS011;67726;45.636;11.752;2023-04-16T12:32:52;4.22;;;1.50;;
78053;SDS011;67726;45.636;11.752;2023-04-16T12:35:38;4.55;;;1.70;;
78053;SDS011;67726;45.636;11.752;2023-04-16T12:38:06;3.10;;;1.30;;
78053;SDS011;67726;45.636;11.752;2023-04-16T12:40:32;4.07;;;1.83;;
78053;SDS011;67726;45.636;11.752;2023-04-16T12:42:58;4.00;;;1.17;;
78053;SDS011;67726;45.636;11.752;2023-04-16T12:45:24;3.50;;;1.45;;
78053;SDS011;67726;45.636;11.752;2023-04-16T12:47:50;3.33;;;1.38;;
78053;SDS011;67726;45.636;11.752;2023-04-16T12:50:16;3.80;;;1.80;;
78053;SDS011;67726;45.636;11.752;2023-04-16T12:52:42;3.13;;;1.35;;
78053;SDS011;67726;45.636;11.752;2023-04-16T12:55:08;2.70;;;1.30;;
78053;SDS011;67726;45.636;11.752;2023-04-16T12:57:34;4.03;;;1.67;;
78053;SDS011;67726;45.636;11.752;2023-04-16T13:00:00;4.28;;;1.35;;
78053;SDS011;67726;45.636;11.752;2023-04-16T13:02:25;3.20;;;1.20;;
78053;SDS011;67726;45.636;11.752;2023-04-16T13:04:52;2.78;;;1.35;;
78053;SDS011;67726;45.636;11.752;2023-04-16T13:07:18;4.65;;;1.52;;
78053;SDS011;67726;45.636;11.752;2023-04-16T13:09:44;3.20;;;1.30;;
78053;SDS011;67726;45.636;11.752;2023-04-16T13:12:10;2.95;;;1.20;;
78053;SDS011;67726;45.636;11.752;2023-04-16T13:14:36;2.90;;;1.30;;
78053;SDS011;67726;45.636;11.752;2023-04-16T13:17:03;3.30;;;1.27;;
78053;SDS011;67726;45.636;11.752;2023-04-16T13:19:29;2.40;;;1.10;;
78053;SDS011;67726;45.636;11.752;2023-04-16T13:21:54;3.17;;;1.40;;
78053;SDS011;67726;45.636;11.752;2023-04-16T13:24:21;3.70;;;1.50;;
78053;SDS011;67726;45.636;11.752;2023-04-16T13:26:47;4.07;;;1.50;;
78053;SDS011;67726;45.636;11.752;2023-04-16T13:29:14;3.67;;;1.20;;
78053;SDS011;67726;45.636;11.752;2023-04-16T13:31:39;3.83;;;1.70;;
78053;SDS011;67726;45.636;11.752;2023-04-16T13:34:05;4.27;;;1.60;;
78053;SDS011;67726;45.636;11.752;2023-04-16T13:36:31;4.15;;;1.52;;
78053;SDS011;67726;45.636;11.752;2023-04-16T13:38:57;4.15;;;1.67;;
78053;SDS011;67726;45.636;11.752;2023-04-16T13:41:23;4.93;;;1.80;;
78053;SDS011;67726;45.636;11.752;2023-04-16T13:43:49;4.30;;;1.70;;
78053;SDS011;67726;45.636;11.752;2023-04-16T13:46:15;4.00;;;1.65;;
78053;SDS011;67726;45.636;11.752;2023-04-16T13:48:40;3.70;;;1.70;;
78053;SDS011;67726;45.636;11.752;2023-04-16T13:51:06;6.47;;;2.50;;
78053;SDS011;67726;45.636;11.752;2023-04-16T13:53:32;5.03;;;2.35;;
78053;SDS011;67726;45.636;11.752;2023-04-16T13:55:58;5.28;;;2.38;;
78053;SDS011;67726;45.636;11.752;2023-04-16T13:58:24;7.33;;;2.20;;
78053;SDS011;67726;45.636;11.752;2023-04-16T14:00:50;4.83;;;1.93;;
78053;SDS011;67726;45.636;11.752;2023-04-16T14:03:16;4.75;;;2.22;;
78053;SDS011;67726;45.636;11.752;2023-04-16T14:05:42;4.47;;;1.90;;
78053;SDS011;67726;45.636;11.752;2023-04-16T14:08:07;4.60;;;2.13;;
78053;SDS011;67726;45.636;11.752;2023-04-16T14:10:34;5.45;;;2.25;;
78053;SDS011;67726;45.636;11.752;2023-04-16T14:13:00;5.38;;;2.00;;
78053;SDS011;67726;45.636;11.752;2023-04-16T14:15:25;5.23;;;2.30;;
78053;SDS011;67726;45.636;11.752;2023-04-16T14:17:53;4.97;;;1.98;;
78053;SDS011;67726;45.636;11.752;2023-04-16T14:20:19;4.95;;;2.45;;
78053;SDS011;67726;45.636;11.752;2023-04-16T14:22:45;6.50;;;2.00;;
78053;SDS011;67726;45.636;11.752;2023-04-16T14:25:11;5.47;;;2.00;;
78053;SDS011;67726;45.636;11.752;2023-04-16T14:27:36;4.60;;;1.83;;
78053;SDS011;67726;45.636;11.752;2023-04-16T14:30:02;4.93;;;2.00;;
78053;SDS011;67726;45.636;11.752;2023-04-16T14:32:29;6.82;;;1.90;;
78053;SDS011;67726;45.636;11.752;2023-04-16T14:34:55;4.13;;;1.73;;
78053;SDS011;67726;45.636;11.752;2023-04-16T14:37:21;5.10;;;2.03;;
78053;SDS011;67726;45.636;11.752;2023-04-16T14:39:46;4.63;;;1.60;;
78053;SDS011;67726;45.636;11.752;2023-04-16T14:42:12;4.50;;;2.10;;
78053;SDS011;67726;45.636;11.752;2023-04-16T14:44:38;4.68;;;1.80;;
78053;SDS011;67726;45.636;11.752;2023-04-16T14:47:03;4.07;;;1.80;;
78053;SDS011;67726;45.636;11.752;2023-04-16T14:49:29;5.22;;;1.90;;
78053;SDS011;67726;45.636;11.752;2023-04-16T14:51:55;4.40;;;2.10;;